Time;durP1;ratioP1;P1;durP2;ratioP2;P2;SDS_P1;SDS_P2;PMS_P1;PMS_P2;Temp;Humidity;BMP_temperature;BMP_pressure;BME280_temperature;BME280_humidity;BME280_pressure;Samples;Min_cycle;Max_cycle;Signal;HPM_P1;HPM_P2
2023/08/09 00:00:42;;;;;;;1.55;1.00;;;;;;;;;;5083337;28;20040;-90
2023/08/09 00:03:11;;;;;;;4.68;1.17;;;;;;;;;;5080176;28;20048;-89
2023/08/09 00:05:41;;;;;;;1.95;0.90;;;;;;;;;;5081469;28;20080;-89
2023/08/09 00:08:09;;;;;;;3.97;1.13;;;;;;;;;;5082067;28;20044;-84
2023/08/09 00:10:37;;;;;;;1.45;1.00;;;;;;;;;;5084004;28;20136;-89
2023/08/09 00:13:06;;;;;;;2.65;1.30;;;;;;;;;;5082070;28;20043;-89
2023/08/09 00:15:35;;;;;;;1.40;1.00;;;;;;;;;;5083262;28;20055;-90
2023/08/09 00:18:03;;;;;;;4.78;1.13;;;;;;;;;;5079918;28;20408;-88
2023/08/09 00:20:33;;;;;;;2.42;1.10;;;;;;;;;;5083079;28;20493;-88
2023/08/09 00:23:04;;;;;;;3.95;1.27;;;;;;;;;;5083254;28;20044;-89
2023/08/09 00:25:33;;;;;;;2.08;1.00;;;;;;;;;;5083448;28;20056;-90
2023/08/09 00:28:02;;;;;;;2.53;1.10;;;;;;;;;;5082743;28;20052;-89
2023/08/09 00:30:30;;;;;;;1.75;1.10;;;;;;;;;;5079366;28;20405;-88
2023/08/09 00:32:59;;;;;;;4.00;1.13;;;;;;;;;;5082464;28;20105;-89
2023/08/09 00:35:28;;;;;;;5.30;1.17;;;;;;;;;;5080181;28;20058;-89
2023/08/09 00:37:56;;;;;;;2.53;1.35;;;;;;;;;;5081684;28;20129;-89
2023/08/09 00:40:26;;;;;;;2.15;1.25;;;;;;;;;;5080282;28;20052;-90
2023/08/09 00:42:54;;;;;;;2.65;1.05;;;;;;;;;;5083621;28;20051;-89
2023/08/09 00:45:23;;;;;;;2.60;1.52;;;;;;;;;;5080661;28;20511;-87
2023/08/09 00:47:52;;;;;;;2.20;1.17;;;;;;;;;;5081567;28;20060;-89
2023/08/09 00:50:20;;;;;;;1.70;1.10;;;;;;;;;;5081618;28;20584;-88
2023/08/09 00:52:49;;;;;;;2.60;1.35;;;;;;;;;;5083187;28;20381;-88
2023/08/09 00:55:17;;;;;;;2.47;0.98;;;;;;;;;;5083038;28;20442;-87
2023/08/09 00:57:48;;;;;;;1.48;0.95;;;;;;;;;;5078489;28;20113;-88
2023/08/09 01:00:16;;;;;;;5.68;1.65;;;;;;;;;;5082226;28;20517;-90
2023/08/09 01:02:44;;;;;;;1.70;1.23;;;;;;;;;;5080484;28;20060;-85
2023/08/09 01:05:13;;;;;;;2.65;1.27;;;;;;;;;;5090804;22;20047;-64
2023/08/09 01:07:46;;;;;;;2.03;1.33;;;;;;;;;;5075968;28;20500;-63
2023/08/09 01:10:16;;;;;;;3.13;1.00;;;;;;;;;;5078534;28;20067;-61
2023/08/09 01:12:48;;;;;;;3.00;1.10;;;;;;;;;;5080546;28;20060;-61
2023/08/09 01:15:20;;;;;;;2.30;0.90;;;;;;;;;;5075396;28;20106;-60
2023/08/09 01:17:49;;;;;;;2.65;1.30;;;;;;;;;;5078845;28;20089;-62
2023/08/09 01:20:19;;;;;;;3.33;1.08;;;;;;;;;;5078931;28;20136;-60
2023/08/09 01:22:50;;;;;;;5.45;0.95;;;;;;;;;;5079791;28;20552;-62
2023/08/09 01:25:21;;;;;;;3.17;1.05;;;;;;;;;;5077130;28;20436;-64
2023/08/09 01:27:49;;;;;;;1.40;1.10;;;;;;;;;;5083046;28;20082;-60
2023/08/09 01:30:18;;;;;;;1.52;1.08;;;;;;;;;;5079198;28;20125;-61
2023/08/09 01:32:46;;;;;;;1.55;1.05;;;;;;;;;;5080410;28;20040;-64
2023/08/09 01:35:15;;;;;;;1.33;0.93;;;;;;;;;;5080858;28;20052;-62
2023/08/09 01:37:48;;;;;;;3.42;1.13;;;;;;;;;;5082430;28;20055;-61
2023/08/09 01:40:17;;;;;;;2.17;1.10;;;;;;;;;;5079200;28;20044;-60
2023/08/09 01:42:47;;;;;;;1.27;1.00;;;;;;;;;;5079237;28;20054;-60
2023/08/09 01:45:16;;;;;;;2.20;0.75;;;;;;;;;;5078384;28;20059;-60
2023/08/09 01:47:44;;;;;;;2.33;1.38;;;;;;;;;;5079667;28;20133;-61
2023/08/09 01:50:20;;;;;;;1.67;0.98;;;;;;;;;;5082391;28;20072;-63
2023/08/09 01:52:48;;;;;;;2.35;1.15;;;;;;;;;;5059602;28;20416;-60
2023/08/09 01:55:17;;;;;;;2.97;1.20;;;;;;;;;;5064885;28;20048;-60
2023/08/09 01:57:48;;;;;;;3.30;1.20;;;;;;;;;;5061600;28;20156;-61
2023/08/09 02:00:19;;;;;;;4.07;1.20;;;;;;;;;;5060830;28;20051;-62
2023/08/09 02:02:48;;;;;;;2.13;1.00;;;;;;;;;;5055150;28;20106;-64
2023/08/09 02:05:16;;;;;;;1.83;1.15;;;;;;;;;;5053916;28;20056;-62
2023/08/09 02:07:45;;;;;;;2.80;1.20;;;;;;;;;;5057961;28;20121;-60
2023/08/09 02:10:14;;;;;;;3.50;1.40;;;;;;;;;;5061108;28;20102;-60
2023/08/09 02:12:47;;;;;;;7.57;1.50;;;;;;;;;;5056195;28;20060;-60
2023/08/09 02:15:17;;;;;;;1.60;1.00;;;;;;;;;;5054664;28;20436;-61
2023/08/09 02:17:46;;;;;;;2.15;1.20;;;;;;;;;;5058003;28;20057;-60
2023/08/09 02:20:14;;;;;;;3.30;1.83;;;;;;;;;;5055655;28;20586;-60
2023/08/09 02:22:43;;;;;;;1.83;1.05;;;;;;;;;;5053975;28;20095;-61
2023/08/09 02:25:12;;;;;;;1.92;1.15;;;;;;;;;;5057196;28;20062;-60
2023/08/09 02:27:41;;;;;;;3.00;1.20;;;;;;;;;;5058349;28;20519;-60
2023/08/09 02:30:11;;;;;;;3.25;1.17;;;;;;;;;;5051023;28;20147;-61
2023/08/09 02:32:41;;;;;;;1.95;1.23;;;;;;;;;;5054981;28;20053;-61
2023/08/09 02:35:11;;;;;;;3.17;1.30;;;;;;;;;;5054624;28;20412;-62
2023/08/09 02:37:39;;;;;;;2.53;1.20;;;;;;;;;;5055651;28;20091;-60
2023/08/09 02:40:10;;;;;;;1.98;1.20;;;;;;;;;;5060877;28;20448;-60
2023/08/09 02:42:39;;;;;;;4.25;1.35;;;;;;;;;;5060549;28;20052;-64
2023/08/09 02:45:08;;;;;;;3.65;1.10;;;;;;;;;;5058921;28;20041;-63
2023/08/09 02:47:36;;;;;;;1.98;0.95;;;;;;;;;;5057421;28;20067;-62
2023/08/09 02:50:07;;;;;;;2.08;1.17;;;;;;;;;;5061892;28;20045;-61
2023/08/09 02:52:36;;;;;;;2.17;1.20;;;;;;;;;;5059397;28;20040;-60
2023/08/09 02:55:06;;;;;;;2.30;0.75;;;;;;;;;;5060151;28;20049;-64
2023/08/09 02:57:35;;;;;;;3.85;1.02;;;;;;;;;;5056201;28;20084;-61
2023/08/09 03:00:04;;;;;;;5.78;1.20;;;;;;;;;;5060720;28;20221;-62
2023/08/09 03:02:32;;;;;;;4.07;1.20;;;;;;;;;;5058117;28;20044;-60
2023/08/09 03:05:03;;;;;;;2.30;1.25;;;;;;;;;;5062160;28;20055;-60
2023/08/09 03:07:33;;;;;;;1.35;0.98;;;;;;;;;;5055844;28;20107;-60
2023/08/09 03:10:03;;;;;;;2.17;1.05;;;;;;;;;;5062196;28;20079;-61
2023/08/09 03:12:31;;;;;;;1.98;1.02;;;;;;;;;;5054612;28;20486;-61
2023/08/09 03:15:00;;;;;;;1.77;1.02;;;;;;;;;;5062747;28;20051;-60
2023/08/09 03:17:28;;;;;;;2.45;1.27;;;;;;;;;;5060758;28;20520;-60
2023/08/09 03:19:56;;;;;;;2.05;1.10;;;;;;;;;;5058286;28;20135;-63
2023/08/09 03:22:25;;;;;;;2.08;1.20;;;;;;;;;;5058221;28;20071;-60
2023/08/09 03:24:55;;;;;;;1.42;1.13;;;;;;;;;;5056528;28;20123;-64
2023/08/09 03:27:23;;;;;;;1.77;1.20;;;;;;;;;;5060762;28;20138;-60
2023/08/09 03:29:51;;;;;;;2.03;1.13;;;;;;;;;;5060718;28;20080;-61
2023/08/09 03:32:20;;;;;;;2.10;0.90;;;;;;;;;;5058793;28;20083;-60
2023/08/09 03:34:48;;;;;;;4.38;1.40;;;;;;;;;;5060191;28;20501;-61
2023/08/09 03:37:17;;;;;;;2.28;1.20;;;;;;;;;;5056075;28;20541;-64
2023/08/09 03:39:45;;;;;;;2.83;1.25;;;;;;;;;;5057620;28;20474;-61
2023/08/09 03:42:15;;;;;;;3.17;1.10;;;;;;;;;;5059343;28;20436;-60
2023/08/09 03:44:43;;;;;;;2.22;1.17;;;;;;;;;;5055598;28;20045;-60
2023/08/09 03:47:12;;;;;;;2.10;1.27;;;;;;;;;;5056387;28;20565;-60
2023/08/09 03:49:40;;;;;;;2.78;1.23;;;;;;;;;;5058282;28;20405;-60
2023/08/09 03:52:09;;;;;;;2.67;1.27;;;;;;;;;;5058129;28;21489;-60
2023/08/09 03:54:38;;;;;;;3.38;1.58;;;;;;;;;;5058164;28;20655;-61
2023/08/09 03:57:06;;;;;;;2.05;1.10;;;;;;;;;;5065937;28;20044;-60
2023/08/09 03:59:36;;;;;;;2.65;1.42;;;;;;;;;;5060183;28;20204;-62
2023/08/09 04:02:05;;;;;;;2.17;1.30;;;;;;;;;;5054558;28;20570;-61
2023/08/09 04:04:34;;;;;;;3.13;1.20;;;;;;;;;;5060290;28;20049;-60
2023/08/09 04:07:04;;;;;;;2.80;1.20;;;;;;;;;;5056369;28;20121;-61
2023/08/09 04:09:33;;;;;;;6.10;1.40;;;;;;;;;;5062612;28;20052;-61
2023/08/09 04:12:01;;;;;;;2.65;1.30;;;;;;;;;;5059266;28;20593;-63
2023/08/09 04:14:29;;;;;;;2.83;1.27;;;;;;;;;;5063891;28;20049;-61
2023/08/09 04:16:59;;;;;;;3.55;1.15;;;;;;;;;;5059865;28;20047;-60
2023/08/09 04:19:28;;;;;;;1.63;1.23;;;;;;;;;;5059422;28;20142;-60
2023/08/09 04:21:57;;;;;;;2.58;1.38;;;;;;;;;;5058857;28;20084;-61
2023/08/09 04:24:25;;;;;;;2.20;1.25;;;;;;;;;;5063553;28;20356;-64
2023/08/09 04:26:53;;;;;;;2.42;1.17;;;;;;;;;;5065037;28;20146;-60
2023/08/09 04:29:22;;;;;;;2.20;1.30;;;;;;;;;;5061778;28;20053;-60
2023/08/09 04:31:50;;;;;;;3.38;1.23;;;;;;;;;;5060824;28;20444;-60
2023/08/09 04:34:20;;;;;;;3.17;1.40;;;;;;;;;;5068194;28;20050;-62
2023/08/09 04:36:49;;;;;;;2.67;1.23;;;;;;;;;;5057776;28;20076;-63
2023/08/09 04:39:20;;;;;;;2.30;1.23;;;;;;;;;;5067066;28;20140;-61
2023/08/09 04:41:48;;;;;;;1.38;0.93;;;;;;;;;;5058444;28;20048;-60
2023/08/09 04:44:23;;;;;;;3.45;1.30;;;;;;;;;;5064309;28;20406;-61
2023/08/09 04:46:51;;;;;;;4.20;1.20;;;;;;;;;;5059583;28;20465;-61
2023/08/09 04:49:21;;;;;;;4.05;1.73;;;;;;;;;;5063631;28;20125;-64
2023/08/09 04:51:49;;;;;;;5.22;1.40;;;;;;;;;;5067735;28;20137;-61
2023/08/09 04:54:18;;;;;;;1.80;1.27;;;;;;;;;;5062794;28;20159;-60
2023/08/09 04:56:46;;;;;;;2.10;1.30;;;;;;;;;;5064259;28;20087;-61
2023/08/09 04:59:16;;;;;;;2.38;1.20;;;;;;;;;;5063548;28;20078;-61
2023/08/09 05:01:44;;;;;;;2.33;1.33;;;;;;;;;;5060910;28;20150;-60
2023/08/09 05:04:13;;;;;;;2.30;1.40;;;;;;;;;;5058132;28;20533;-59
2023/08/09 05:06:42;;;;;;;4.97;2.00;;;;;;;;;;5061691;28;20446;-60
2023/08/09 05:09:11;;;;;;;4.90;1.48;;;;;;;;;;5059627;28;20052;-60
2023/08/09 05:11:39;;;;;;;4.25;1.27;;;;;;;;;;5060460;28;20044;-60
2023/08/09 05:14:07;;;;;;;3.15;1.50;;;;;;;;;;5066703;28;20660;-60
2023/08/09 05:16:36;;;;;;;4.28;1.35;;;;;;;;;;5068731;28;20051;-60
2023/08/09 05:19:04;;;;;;;1.92;1.30;;;;;;;;;;5066245;28;20776;-60
2023/08/09 05:21:33;;;;;;;2.55;1.20;;;;;;;;;;5065869;28;20130;-60
2023/08/09 05:24:03;;;;;;;4.07;1.33;;;;;;;;;;5064052;28;20466;-62
2023/08/09 05:26:31;;;;;;;6.53;1.70;;;;;;;;;;5067993;28;20516;-61
2023/08/09 05:28:59;;;;;;;3.40;1.70;;;;;;;;;;5063577;28;20080;-60
2023/08/09 05:31:28;;;;;;;2.95;1.23;;;;;;;;;;5062448;28;20101;-60
2023/08/09 05:33:57;;;;;;;3.63;1.40;;;;;;;;;;5062023;28;20076;-61
2023/08/09 05:36:25;;;;;;;2.55;1.30;;;;;;;;;;5067590;28;20052;-62
2023/08/09 05:38:54;;;;;;;5.80;1.63;;;;;;;;;;5065064;28;20060;-61
2023/08/09 05:41:23;;;;;;;1.75;1.23;;;;;;;;;;5070433;28;20361;-62
2023/08/09 05:43:52;;;;;;;4.95;1.75;;;;;;;;;;5065276;28;20044;-61
2023/08/09 05:46:21;;;;;;;2.42;1.45;;;;;;;;;;5065774;28;20044;-60
2023/08/09 05:48:49;;;;;;;2.22;1.40;;;;;;;;;;5066019;28;20513;-60
2023/08/09 05:51:18;;;;;;;5.25;1.60;;;;;;;;;;5072853;28;20052;-61
2023/08/09 05:53:46;;;;;;;4.43;1.27;;;;;;;;;;5066444;28;20439;-61
2023/08/09 05:56:15;;;;;;;4.45;1.35;;;;;;;;;;5066631;28;20044;-66
2023/08/09 05:58:44;;;;;;;2.60;1.27;;;;;;;;;;5063537;28;20079;-65
2023/08/09 06:01:14;;;;;;;4.50;1.55;;;;;;;;;;5066077;28;20087;-65
2023/08/09 06:03:42;;;;;;;3.35;1.42;;;;;;;;;;5065951;28;20159;-61
2023/08/09 06:06:11;;;;;;;1.52;1.13;;;;;;;;;;5064361;28;20052;-61
2023/08/09 06:08:40;;;;;;;5.38;1.38;;;;;;;;;;5063373;28;20047;-66
2023/08/09 06:11:09;;;;;;;3.65;1.25;;;;;;;;;;5064036;28;20053;-63
2023/08/09 06:13:37;;;;;;;2.10;1.17;;;;;;;;;;5066735;28;20047;-61
2023/08/09 06:16:07;;;;;;;3.15;1.45;;;;;;;;;;5065087;28;20499;-62
2023/08/09 06:18:35;;;;;;;4.45;1.40;;;;;;;;;;5063691;28;20041;-61
2023/08/09 06:21:04;;;;;;;3.15;1.27;;;;;;;;;;5063804;28;20433;-62
2023/08/09 06:23:32;;;;;;;3.22;1.33;;;;;;;;;;5063994;28;20049;-63
2023/08/09 06:26:01;;;;;;;2.80;1.30;;;;;;;;;;5063352;28;20053;-64
2023/08/09 06:28:29;;;;;;;4.32;1.42;;;;;;;;;;5066826;28;20057;-61
2023/08/09 06:30:57;;;;;;;3.08;1.30;;;;;;;;;;5060905;28;20082;-61
2023/08/09 06:33:30;;;;;;;2.40;1.20;;;;;;;;;;5064592;28;20128;-60
2023/08/09 06:35:58;;;;;;;2.78;1.25;;;;;;;;;;5061291;28;20064;-66
2023/08/09 06:38:26;;;;;;;2.42;1.50;;;;;;;;;;5062142;28;20045;-64
2023/08/09 06:40:55;;;;;;;2.85;1.45;;;;;;;;;;5063397;28;20122;-61
2023/08/09 06:43:23;;;;;;;2.08;1.30;;;;;;;;;;5061657;28;20128;-64
2023/08/09 06:45:52;;;;;;;3.13;1.45;;;;;;;;;;5062513;28;20122;-61
2023/08/09 06:48:20;;;;;;;7.20;1.50;;;;;;;;;;5064687;28;20580;-62
2023/08/09 06:50:50;;;;;;;2.28;1.40;;;;;;;;;;5062419;28;20044;-60
2023/08/09 06:53:19;;;;;;;3.45;1.30;;;;;;;;;;5056124;28;20049;-60
2023/08/09 06:55:47;;;;;;;3.47;1.50;;;;;;;;;;5057544;28;20048;-60
2023/08/09 06:58:16;;;;;;;2.88;1.02;;;;;;;;;;5057663;28;20080;-60
2023/08/09 07:00:46;;;;;;;5.28;1.70;;;;;;;;;;5061457;28;20052;-61
2023/08/09 07:03:15;;;;;;;3.78;1.70;;;;;;;;;;5058024;28;20132;-58
2023/08/09 07:05:44;;;;;;;4.38;2.20;;;;;;;;;;5055540;28;20047;-60
2023/08/09 07:08:13;;;;;;;2.70;1.45;;;;;;;;;;5058130;28;20061;-59
2023/08/09 07:10:42;;;;;;;3.80;1.77;;;;;;;;;;5058294;28;20448;-60
2023/08/09 07:13:10;;;;;;;3.58;1.65;;;;;;;;;;5059646;28;20126;-63
2023/08/09 07:15:39;;;;;;;6.18;1.55;;;;;;;;;;5058816;28;20052;-60
2023/08/09 07:18:07;;;;;;;2.40;1.60;;;;;;;;;;5063456;28;20081;-59
2023/08/09 07:20:35;;;;;;;3.65;1.42;;;;;;;;;;5058795;28;20048;-59
2023/08/09 07:23:04;;;;;;;4.57;1.67;;;;;;;;;;5063974;28;20044;-64
2023/08/09 07:25:34;;;;;;;3.30;1.60;;;;;;;;;;5063220;28;20127;-62
2023/08/09 07:28:02;;;;;;;2.40;1.48;;;;;;;;;;5064901;28;20512;-59
2023/08/09 07:30:31;;;;;;;6.28;1.77;;;;;;;;;;5063681;28;20044;-59
2023/08/09 07:32:59;;;;;;;1.58;1.17;;;;;;;;;;5063204;28;20140;-61
2023/08/09 07:35:28;;;;;;;3.13;1.50;;;;;;;;;;5067331;28;20087;-60
2023/08/09 07:37:57;;;;;;;4.00;1.40;;;;;;;;;;5064024;28;20052;-65
2023/08/09 07:40:25;;;;;;;3.38;1.40;;;;;;;;;;5064363;28;20481;-59
2023/08/09 07:42:55;;;;;;;5.20;1.55;;;;;;;;;;5064249;28;20098;-61
2023/08/09 07:45:24;;;;;;;2.97;1.40;;;;;;;;;;5062964;28;20123;-61
2023/08/09 07:47:52;;;;;;;4.68;1.65;;;;;;;;;;5064313;28;20075;-60
2023/08/09 07:50:20;;;;;;;3.03;1.48;;;;;;;;;;5062540;28;20123;-63
2023/08/09 07:52:49;;;;;;;4.63;1.77;;;;;;;;;;5066081;28;20493;-60
2023/08/09 07:55:18;;;;;;;4.10;1.60;;;;;;;;;;5062325;28;20382;-64
2023/08/09 07:57:46;;;;;;;5.40;1.70;;;;;;;;;;5065394;28;20040;-60
2023/08/09 08:00:17;;;;;;;5.38;1.70;;;;;;;;;;5069267;28;20394;-60
2023/08/09 08:02:47;;;;;;;5.32;1.35;;;;;;;;;;5067054;28;20102;-60
2023/08/09 08:05:16;;;;;;;2.40;1.15;;;;;;;;;;5067481;28;20041;-60
2023/08/09 08:07:44;;;;;;;3.72;1.30;;;;;;;;;;5065842;28;20048;-59
2023/08/09 08:10:15;;;;;;;3.40;1.42;;;;;;;;;;5063803;28;20056;-60
2023/08/09 08:12:44;;;;;;;3.97;1.50;;;;;;;;;;5069561;28;20064;-62
2023/08/09 08:15:13;;;;;;;4.53;1.58;;;;;;;;;;5063509;28;20509;-58
2023/08/09 08:17:43;;;;;;;3.78;1.70;;;;;;;;;;5060505;28;20079;-61
2023/08/09 08:20:15;;;;;;;3.13;1.50;;;;;;;;;;5062880;28;20170;-59
2023/08/09 08:22:44;;;;;;;2.83;1.63;;;;;;;;;;5063283;28;20052;-59
2023/08/09 08:25:12;;;;;;;3.05;2.08;;;;;;;;;;5065286;28;20049;-64
2023/08/09 08:27:42;;;;;;;2.08;1.17;;;;;;;;;;5066812;28;20052;-59
2023/08/09 08:30:11;;;;;;;4.18;1.67;;;;;;;;;;5058067;28;20087;-59
2023/08/09 08:32:42;;;;;;;3.00;1.35;;;;;;;;;;5058635;28;20040;-59
2023/08/09 08:35:13;;;;;;;5.32;1.10;;;;;;;;;;5057166;28;20053;-60
2023/08/09 08:37:42;;;;;;;2.55;1.55;;;;;;;;;;5060867;28;20079;-61
2023/08/09 08:40:17;;;;;;;2.70;1.35;;;;;;;;;;5061205;28;20473;-65
2023/08/09 08:42:46;;;;;;;3.80;1.60;;;;;;;;;;5062951;28;20045;-59
2023/08/09 08:45:15;;;;;;;3.53;1.30;;;;;;;;;;5057145;28;20053;-61
2023/08/09 08:47:46;;;;;;;3.95;1.40;;;;;;;;;;5058219;28;20409;-59
2023/08/09 08:50:15;;;;;;;1.88;1.30;;;;;;;;;;5058715;28;20057;-63
2023/08/09 08:52:45;;;;;;;2.72;1.60;;;;;;;;;;5061143;28;20072;-59
2023/08/09 08:55:14;;;;;;;3.67;1.48;;;;;;;;;;5058487;28;20055;-60
2023/08/09 08:57:43;;;;;;;3.10;1.20;;;;;;;;;;5059081;28;20697;-60
2023/08/09 09:00:15;;;;;;;2.80;1.58;;;;;;;;;;5059760;28;20091;-60
2023/08/09 09:02:55;;;;;;;4.55;1.70;;;;;;;;;;5057841;28;20055;-62
2023/08/09 09:05:23;;;;;;;3.40;1.60;;;;;;;;;;5059775;28;20060;-59
2023/08/09 09:07:56;;;;;;;3.20;1.85;;;;;;;;;;5059970;28;20048;-59
2023/08/09 09:10:25;;;;;;;3.35;1.60;;;;;;;;;;5059153;28;20098;-60
2023/08/09 09:12:55;;;;;;;3.63;1.70;;;;;;;;;;5060166;28;20509;-60
2023/08/09 09:15:25;;;;;;;3.33;1.40;;;;;;;;;;5058614;28;20051;-64
2023/08/09 09:17:55;;;;;;;2.88;1.50;;;;;;;;;;5056373;28;20083;-61
2023/08/09 09:20:27;;;;;;;2.53;1.45;;;;;;;;;;5059605;28;20040;-59
2023/08/09 09:22:56;;;;;;;2.42;1.40;;;;;;;;;;5058966;28;20111;-61
2023/08/09 09:25:24;;;;;;;2.55;1.50;;;;;;;;;;5057625;28;20127;-59
2023/08/09 09:27:54;;;;;;;3.35;1.65;;;;;;;;;;5057335;28;20041;-59
2023/08/09 09:30:24;;;;;;;2.55;1.40;;;;;;;;;;5060007;28;20551;-59
2023/08/09 09:32:58;;;;;;;3.60;1.55;;;;;;;;;;5060052;28;20053;-62
2023/08/09 09:35:27;;;;;;;3.60;1.50;;;;;;;;;;5055048;28;20076;-60
2023/08/09 09:37:57;;;;;;;6.43;1.45;;;;;;;;;;5058024;28;20123;-59
2023/08/09 09:40:28;;;;;;;2.85;1.30;;;;;;;;;;5052972;28;20051;-63
2023/08/09 09:42:58;;;;;;;2.67;1.30;;;;;;;;;;5058576;28;20052;-60
2023/08/09 09:45:27;;;;;;;1.92;1.17;;;;;;;;;;5061462;28;20566;-63
2023/08/09 09:47:57;;;;;;;3.83;1.60;;;;;;;;;;5055701;28;20102;-59
2023/08/09 09:50:29;;;;;;;2.05;1.40;;;;;;;;;;5056600;28;20080;-59
2023/08/09 09:52:57;;;;;;;5.05;1.73;;;;;;;;;;5058496;28;20056;-60
2023/08/09 09:55:28;;;;;;;2.42;1.30;;;;;;;;;;5054740;28;20358;-59
2023/08/09 09:57:57;;;;;;;3.70;1.60;;;;;;;;;;5052361;28;20052;-59
2023/08/09 10:00:27;;;;;;;2.58;1.50;;;;;;;;;;5053082;28;20044;-64
2023/08/09 10:03:00;;;;;;;6.28;1.67;;;;;;;;;;5054316;28;20289;-59
2023/08/09 10:05:35;;;;;;;3.00;1.50;;;;;;;;;;5054150;28;20049;-58
2023/08/09 10:08:06;;;;;;;4.10;1.50;;;;;;;;;;5055846;28;20529;-60
2023/08/09 10:10:41;;;;;;;4.40;1.63;;;;;;;;;;5054891;28;20057;-59
2023/08/09 10:13:09;;;;;;;7.20;1.95;;;;;;;;;;5060753;28;20060;-60
2023/08/09 10:15:40;;;;;;;3.45;1.80;;;;;;;;;;5059329;28;20153;-59
2023/08/09 10:18:12;;;;;;;3.28;1.67;;;;;;;;;;5057721;28;20477;-59
2023/08/09 10:20:47;;;;;;;4.80;1.83;;;;;;;;;;5057617;28;20044;-59
2023/08/09 10:23:25;;;;;;;3.50;1.33;;;;;;;;;;5060295;28;20080;-58
2023/08/09 10:25:55;;;;;;;3.75;2.10;;;;;;;;;;5056644;28;20142;-58
2023/08/09 10:28:39;;;;;;;5.30;1.77;;;;;;;;;;5057481;28;20094;-62
2023/08/09 10:31:07;;;;;;;7.20;1.83;;;;;;;;;;5056403;28;20052;-60
2023/08/09 10:33:37;;;;;;;4.80;1.73;;;;;;;;;;5060004;28;20048;-60
2023/08/09 10:36:06;;;;;;;2.65;1.50;;;;;;;;;;5060927;28;20141;-66
2023/08/09 10:38:40;;;;;;;4.25;1.95;;;;;;;;;;5059249;28;20687;-58
2023/08/09 10:41:16;;;;;;;2.38;1.55;;;;;;;;;;5059640;28;20044;-60
2023/08/09 10:43:44;;;;;;;4.80;1.70;;;;;;;;;;5056718;28;20048;-62
2023/08/09 10:46:20;;;;;;;4.28;2.10;;;;;;;;;;5053915;28;20052;-62
2023/08/09 10:48:53;;;;;;;3.90;1.90;;;;;;;;;;5055925;28;20143;-58
2023/08/09 10:51:22;;;;;;;6.00;1.77;;;;;;;;;;5057635;28;20044;-60
2023/08/09 10:53:51;;;;;;;2.97;1.42;;;;;;;;;;5056354;28;20485;-63
2023/08/09 10:56:33;;;;;;;7.32;1.77;;;;;;;;;;5059244;28;20177;-58
2023/08/09 10:59:06;;;;;;;2.45;1.45;;;;;;;;;;5055051;28;20053;-59
2023/08/09 11:01:35;;;;;;;4.05;1.95;;;;;;;;;;5056461;28;20053;-58
2023/08/09 11:04:06;;;;;;;3.60;1.73;;;;;;;;;;5060108;28;20057;-59
2023/08/09 11:06:38;;;;;;;2.53;1.42;;;;;;;;;;5066015;28;20115;-58
2023/08/09 11:09:08;;;;;;;2.85;1.50;;;;;;;;;;5064083;28;20048;-60
2023/08/09 11:11:37;;;;;;;3.00;1.55;;;;;;;;;;5061151;28;20565;-60
2023/08/09 11:14:06;;;;;;;3.03;1.30;;;;;;;;;;5060800;28;20110;-59
2023/08/09 11:16:34;;;;;;;1.45;1.05;;;;;;;;;;5061642;28;20056;-58
2023/08/09 11:19:09;;;;;;;4.45;1.40;;;;;;;;;;5063722;28;20041;-61
2023/08/09 11:21:56;;;;;;;2.92;1.20;;;;;;;;;;5062785;28;20091;-58
2023/08/09 11:24:25;;;;;;;2.25;1.38;;;;;;;;;;5058551;28;20047;-58
2023/08/09 11:26:55;;;;;;;2.40;1.33;;;;;;;;;;5051485;28;20053;-63
2023/08/09 11:29:25;;;;;;;3.30;1.30;;;;;;;;;;5057376;28;20133;-59
2023/08/09 11:31:55;;;;;;;2.50;1.25;;;;;;;;;;5054386;28;20052;-59
2023/08/09 11:34:25;;;;;;;1.83;1.25;;;;;;;;;;5059444;28;20056;-60
2023/08/09 11:36:54;;;;;;;3.60;1.30;;;;;;;;;;5058711;28;20053;-60
2023/08/09 11:39:24;;;;;;;3.22;1.30;;;;;;;;;;5061366;28;20151;-63
2023/08/09 11:41:54;;;;;;;3.55;1.48;;;;;;;;;;5057043;28;20047;-60
2023/08/09 11:44:24;;;;;;;2.72;1.40;;;;;;;;;;5062104;28;20056;-58
2023/08/09 11:46:54;;;;;;;1.88;1.13;;;;;;;;;;5059031;28;20048;-58
2023/08/09 11:49:27;;;;;;;5.88;1.67;;;;;;;;;;5060299;28;20048;-59
2023/08/09 11:51:56;;;;;;;2.97;1.20;;;;;;;;;;5062198;28;20075;-61
2023/08/09 11:54:24;;;;;;;2.88;1.30;;;;;;;;;;5056978;28;20102;-62
2023/08/09 11:56:52;;;;;;;1.75;1.23;;;;;;;;;;5064015;28;20468;-59
2023/08/09 11:59:21;;;;;;;2.05;1.30;;;;;;;;;;5064700;28;20290;-59
2023/08/09 12:01:51;;;;;;;4.28;1.45;;;;;;;;;;5062730;28;20052;-61
2023/08/09 12:04:22;;;;;;;4.20;1.60;;;;;;;;;;5056276;28;20052;-60
2023/08/09 12:06:54;;;;;;;2.22;1.40;;;;;;;;;;5060476;28;20040;-63
2023/08/09 12:09:30;;;;;;;2.90;1.38;;;;;;;;;;5062406;28;20171;-60
2023/08/09 12:12:06;;;;;;;2.63;1.25;;;;;;;;;;5057476;28;20569;-59
2023/08/09 12:14:35;;;;;;;3.95;1.25;;;;;;;;;;5054661;28;20059;-61
2023/08/09 12:17:04;;;;;;;1.85;1.00;;;;;;;;;;5059316;28;20458;-62
2023/08/09 12:19:32;;;;;;;1.88;1.23;;;;;;;;;;5054456;28;20672;-59
2023/08/09 12:22:03;;;;;;;3.83;1.50;;;;;;;;;;5056238;28;20051;-59
2023/08/09 12:24:32;;;;;;;1.88;1.42;;;;;;;;;;5058076;28;20052;-59
2023/08/09 12:27:01;;;;;;;2.90;1.23;;;;;;;;;;5058257;28;20118;-64
2023/08/09 12:29:29;;;;;;;3.33;1.38;;;;;;;;;;5057321;28;20072;-65
2023/08/09 12:31:59;;;;;;;3.15;1.38;;;;;;;;;;5058202;28;20417;-60
2023/08/09 12:34:28;;;;;;;2.58;1.38;;;;;;;;;;5058663;28;20289;-59
2023/08/09 12:36:56;;;;;;;4.18;1.30;;;;;;;;;;5055864;28;20562;-60
2023/08/09 12:39:27;;;;;;;2.90;1.20;;;;;;;;;;5058173;28;20049;-62
2023/08/09 12:41:56;;;;;;;4.00;1.60;;;;;;;;;;5056506;28;20072;-59
2023/08/09 12:44:25;;;;;;;2.13;1.13;;;;;;;;;;5060198;28;20531;-60
2023/08/09 12:46:53;;;;;;;2.75;1.45;;;;;;;;;;5059250;28;20044;-59
2023/08/09 12:49:22;;;;;;;3.85;1.42;;;;;;;;;;5058791;28;20052;-60
2023/08/09 12:51:50;;;;;;;3.83;1.45;;;;;;;;;;5054437;28;21252;-59
2023/08/09 12:54:19;;;;;;;2.50;1.40;;;;;;;;;;5058751;28;20390;-61
2023/08/09 12:56:48;;;;;;;2.45;1.50;;;;;;;;;;5059539;28;20048;-59
2023/08/09 12:59:21;;;;;;;2.22;1.30;;;;;;;;;;5057981;28;20041;-58
2023/08/09 13:01:50;;;;;;;1.60;1.08;;;;;;;;;;5054311;28;20452;-62
2023/08/09 13:04:23;;;;;;;4.45;1.38;;;;;;;;;;5056048;28;20489;-59
2023/08/09 13:06:52;;;;;;;4.47;1.60;;;;;;;;;;5057036;28;20045;-59
2023/08/09 13:09:21;;;;;;;1.92;1.42;;;;;;;;;;5058264;28;20064;-64
2023/08/09 13:11:51;;;;;;;2.65;1.35;;;;;;;;;;5058689;28;20125;-59
2023/08/09 13:14:19;;;;;;;3.33;1.20;;;;;;;;;;5064682;28;20946;-59
2023/08/09 13:16:48;;;;;;;3.78;1.52;;;;;;;;;;5060968;28;20041;-60
2023/08/09 13:19:16;;;;;;;3.00;1.27;;;;;;;;;;5056167;28;20052;-59
2023/08/09 13:21:45;;;;;;;3.25;1.23;;;;;;;;;;5064811;28;20129;-59
2023/08/09 13:24:13;;;;;;;1.80;1.27;;;;;;;;;;5061477;28;20052;-60
2023/08/09 13:26:42;;;;;;;3.42;1.42;;;;;;;;;;5064102;28;20109;-59
2023/08/09 13:29:12;;;;;;;2.20;1.25;;;;;;;;;;5059643;28;20051;-59
2023/08/09 13:31:40;;;;;;;2.65;1.02;;;;;;;;;;5068100;28;20098;-59
2023/08/09 13:34:09;;;;;;;2.38;1.30;;;;;;;;;;5067957;28;20054;-60
2023/08/09 13:36:37;;;;;;;4.25;1.63;;;;;;;;;;5064542;28;20423;-59
2023/08/09 13:39:07;;;;;;;2.83;1.42;;;;;;;;;;5064455;28;20055;-63
2023/08/09 13:41:36;;;;;;;2.92;1.30;;;;;;;;;;5066031;28;20040;-58
2023/08/09 13:44:05;;;;;;;1.98;1.08;;;;;;;;;;5066944;28;20146;-64
2023/08/09 13:46:34;;;;;;;1.83;1.17;;;;;;;;;;5059192;28;20060;-59
2023/08/09 13:49:04;;;;;;;3.22;1.20;;;;;;;;;;5061018;28;20040;-59
2023/08/09 13:51:32;;;;;;;3.38;1.65;;;;;;;;;;5064234;28;20048;-64
2023/08/09 13:54:01;;;;;;;1.75;1.38;;;;;;;;;;5063962;28;20064;-60
2023/08/09 13:56:29;;;;;;;3.13;1.48;;;;;;;;;;5060508;28;20052;-61
2023/08/09 13:58:58;;;;;;;5.50;1.70;;;;;;;;;;5060428;28;20098;-59
2023/08/09 14:01:26;;;;;;;2.72;1.30;;;;;;;;;;5058320;28;20091;-61
2023/08/09 14:03:57;;;;;;;3.65;1.48;;;;;;;;;;5058515;28;20112;-60
2023/08/09 14:06:25;;;;;;;2.25;1.17;;;;;;;;;;5058804;28;20056;-64
2023/08/09 14:08:54;;;;;;;2.78;1.58;;;;;;;;;;5062323;28;20102;-59
2023/08/09 14:11:22;;;;;;;5.00;1.70;;;;;;;;;;5062546;28;20072;-58
2023/08/09 14:13:50;;;;;;;2.55;1.52;;;;;;;;;;5061291;28;20121;-59
2023/08/09 14:16:19;;;;;;;2.47;1.40;;;;;;;;;;5060028;28;20094;-59
2023/08/09 14:18:48;;;;;;;2.03;1.25;;;;;;;;;;5063512;28;20060;-59
2023/08/09 14:21:17;;;;;;;1.58;1.20;;;;;;;;;;5064640;28;20122;-59
2023/08/09 14:23:46;;;;;;;3.20;1.25;;;;;;;;;;5057612;28;20051;-59
2023/08/09 14:26:14;;;;;;;3.63;1.77;;;;;;;;;;5059235;28;20588;-58
2023/08/09 14:28:43;;;;;;;3.03;1.30;;;;;;;;;;5063835;28;20404;-63
2023/08/09 14:31:11;;;;;;;3.67;1.63;;;;;;;;;;5061835;28;20639;-64
2023/08/09 14:33:40;;;;;;;2.53;1.30;;;;;;;;;;5062618;28;20161;-61
2023/08/09 14:36:08;;;;;;;2.75;1.27;;;;;;;;;;5058757;28;20048;-61
2023/08/09 14:38:38;;;;;;;2.00;1.23;;;;;;;;;;5057869;28;20102;-60
2023/08/09 14:41:06;;;;;;;3.95;1.70;;;;;;;;;;5060942;28;20493;-63
2023/08/09 14:43:36;;;;;;;1.60;1.13;;;;;;;;;;5059380;28;20044;-63
2023/08/09 14:46:05;;;;;;;6.22;1.30;;;;;;;;;;5059663;28;20053;-61
2023/08/09 14:48:33;;;;;;;2.88;1.40;;;;;;;;;;5059664;28;20063;-59
2023/08/09 14:51:03;;;;;;;2.22;1.20;;;;;;;;;;5063277;28;20512;-58
2023/08/09 14:53:32;;;;;;;1.98;1.40;;;;;;;;;;5066086;28;20053;-60
2023/08/09 14:56:02;;;;;;;3.45;1.40;;;;;;;;;;5058187;28;20138;-62